Time;durP1;ratioP1;P1;durP2;ratioP2;P2;SDS_P1;SDS_P2;PMS_P1;PMS_P2;Temp;Humidity;BMP_temperature;BMP_pressure;BME280_temperature;BME280_humidity;BME280_pressure;Samples;Min_cycle;Max_cycle;Signal;HPM_P1;HPM_P2
2023/07/30 00:04:56;;;;;;;9.60;7.90;;;;;;;21.53;100.00;99446.45;676892;1270;141377;-77
2023/07/30 00:19:59;;;;;;;9.10;5.60;;;;;;;21.52;100.00;99445.20;675063;1264;140292;-76
2023/07/30 00:35:03;;;;;;;6.40;5.50;;;;;;;21.25;100.00;99440.91;675925;1273;140873;-79
2023/07/30 00:50:08;;;;;;;7.10;5.20;;;;;;;21.17;100.00;99447.37;678533;1265;140154;-77
2023/07/30 01:05:11;;;;;;;6.70;3.90;;;;;;;20.62;100.00;99453.42;674612;1267;139403;-76
2023/07/30 01:20:14;;;;;;;6.60;4.20;;;;;;;20.67;100.00;99462.20;678889;1265;140591;-77
2023/07/30 01:35:25;;;;;;;6.60;4.70;;;;;;;20.66;100.00;99481.66;676254;1271;140145;-77
2023/07/30 01:50:28;;;;;;;7.70;5.60;;;;;;;20.16;100.00;99495.08;677752;1270;140717;-76
2023/07/30 02:05:32;;;;;;;13.10;7.00;;;;;;;20.15;100.00;99501.13;677856;1267;140624;-77
2023/07/30 02:20:35;;;;;;;10.30;5.50;;;;;;;20.32;100.00;99508.82;676546;1267;139843;-80
2023/07/30 02:35:38;;;;;;;14.30;6.80;;;;;;;20.19;100.00;99515.20;679190;1269;141316;-77
2023/07/30 02:50:41;;;;;;;10.60;6.70;;;;;;;20.34;100.00;99511.59;676751;1264;141428;-78
2023/07/30 03:05:44;;;;;;;11.70;7.80;;;;;;;19.72;100.00;99520.90;677575;1267;139609;-76
2023/07/30 03:20:48;;;;;;;13.30;8.00;;;;;;;19.79;100.00;99521.44;679226;1264;140597;-78
2023/07/30 03:35:51;;;;;;;15.70;8.60;;;;;;;19.68;100.00;99530.66;675182;1268;140550;-77
2023/07/30 03:50:55;;;;;;;11.80;8.00;;;;;;;19.61;100.00;99534.59;677083;1264;140191;-76
2023/07/30 04:05:58;;;;;;;13.90;8.00;;;;;;;19.65;100.00;99534.11;677973;1267;140283;-76
2023/07/30 04:21:01;;;;;;;18.30;9.00;;;;;;;20.06;100.00;99545.10;677361;1264;140428;-77
2023/07/30 04:36:06;;;;;;;15.60;7.80;;;;;;;19.85;100.00;99554.19;677752;1268;141072;-77
2023/07/30 04:51:10;;;;;;;10.90;7.30;;;;;;;19.92;100.00;99556.77;676583;1264;140722;-76
2023/07/30 05:06:13;;;;;;;11.70;8.40;;;;;;;20.45;100.00;99570.34;677193;1267;140568;-76
2023/07/30 05:21:16;;;;;;;13.90;8.60;;;;;;;20.98;100.00;99593.79;679797;1267;140657;-78
2023/07/30 05:36:20;;;;;;;17.40;10.30;;;;;;;21.07;100.00;99614.58;679612;1267;141538;-76
2023/07/30 05:51:23;;;;;;;14.10;10.70;;;;;;;21.27;100.00;99630.73;679978;1263;141682;-75
2023/07/30 06:06:27;;;;;;;18.60;11.00;;;;;;;21.53;100.00;99637.48;678153;1269;140663;-75
2023/07/30 06:21:30;;;;;;;18.00;12.90;;;;;;;21.62;100.00;99648.30;678007;1269;141233;-76
2023/07/30 06:36:33;;;;;;;15.80;10.30;;;;;;;21.56;100.00;99653.96;676831;1268;140635;-76
2023/07/30 06:51:37;;;;;;;14.70;10.10;;;;;;;21.43;100.00;99657.58;677448;1269;140058;-77
2023/07/30 07:06:42;;;;;;;15.00;10.10;;;;;;;21.45;100.00;99664.75;676741;1269;459057;-76
2023/07/30 07:21:45;;;;;;;14.00;8.90;;;;;;;21.91;100.00;99677.05;679085;1269;140520;-77
2023/07/30 07:36:49;;;;;;;11.60;7.90;;;;;;;22.18;100.00;99679.36;678473;1267;140893;-76
2023/07/30 07:51:52;;;;;;;11.60;7.70;;;;;;;23.00;100.00;99677.90;679521;1268;140095;-76
2023/07/30 08:06:59;;;;;;;10.90;7.90;;;;;;;23.61;100.00;99662.83;678414;1266;141397;-77
2023/07/30 08:22:03;;;;;;;8.00;6.10;;;;;;;24.14;99.61;99672.21;679477;1269;139674;-78
2023/07/30 08:37:06;;;;;;;11.20;6.80;;;;;;;24.23;98.00;99682.95;679894;1265;139347;-76
2023/07/30 08:52:10;;;;;;;9.60;7.20;;;;;;;23.82;97.24;99692.16;679355;1268;139652;-77
2023/07/30 09:07:14;;;;;;;8.50;5.80;;;;;;;23.80;97.49;99701.62;678924;1269;139580;-77
2023/07/30 09:22:27;;;;;;;8.80;6.00;;;;;;;24.45;96.35;99703.20;678527;1268;140644;-77
2023/07/30 09:37:32;;;;;;;7.10;5.10;;;;;;;25.22;91.82;99712.63;679883;1268;140059;-76
2023/07/30 09:52:35;;;;;;;7.60;4.70;;;;;;;26.32;86.38;99712.20;679828;1268;140533;-78
2023/07/30 10:07:47;;;;;;;6.60;4.20;;;;;;;27.55;79.79;99719.52;679155;1267;141812;-77
2023/07/30 10:22:55;;;;;;;4.50;3.80;;;;;;;28.16;76.34;99706.72;680006;1265;140421;-78
2023/07/30 10:37:58;;;;;;;5.10;3.60;;;;;;;28.76;72.20;99705.09;679251;1269;139573;-76
2023/07/30 10:53:02;;;;;;;4.90;3.80;;;;;;;28.73;71.46;99691.70;679772;1267;138874;-78
2023/07/30 11:08:05;;;;;;;4.00;3.60;;;;;;;29.29;70.84;99689.94;679862;1268;139518;-79
2023/07/30 11:23:20;;;;;;;7.20;4.10;;;;;;;29.27;67.38;99681.75;678921;1270;141262;-78
2023/07/30 11:38:25;;;;;;;6.90;4.50;;;;;;;29.39;65.75;99673.36;679589;1264;139422;-77
2023/07/30 11:54:14;;;;;;;6.20;3.60;;;;;;;30.00;63.71;99667.72;678013;1269;139686;-77
2023/07/30 12:09:25;;;;;;;5.70;4.10;;;;;;;30.29;62.49;99656.32;677411;1269;140693;-77
2023/07/30 12:24:30;;;;;;;6.00;3.70;;;;;;;30.02;62.47;99649.89;679050;1269;139398;-77
2023/07/30 12:39:37;;;;;;;6.60;4.30;;;;;;;29.68;62.38;99639.20;679505;1267;143357;-79
2023/07/30 12:54:53;;;;;;;5.40;4.90;;;;;;;29.23;62.57;99637.55;680044;1266;139155;-75
2023/07/30 13:10:06;;;;;;;9.10;5.10;;;;;;;29.55;63.14;99630.58;679286;1269;140193;-77
2023/07/30 13:25:11;;;;;;;6.60;3.90;;;;;;;30.15;61.53;99623.90;679096;1269;138628;-80
2023/07/30 13:40:16;;;;;;;6.10;3.50;;;;;;;29.78;61.68;99613.92;680014;1268;139989;-76
2023/07/30 13:55:25;;;;;;;2.80;2.50;;;;;;;29.84;59.60;99611.71;675853;1269;138553;-82
2023/07/30 14:10:31;;;;;;;3.70;2.80;;;;;;;30.45;57.41;99607.77;672699;1270;139280;-81
2023/07/30 14:25:38;;;;;;;5.90;2.90;;;;;;;29.86;58.96;99597.44;678020;1270;139168;-88
2023/07/30 14:40:43;;;;;;;2.60;2.30;;;;;;;29.46;60.21;99589.01;677601;1273;138811;-81
2023/07/30 14:55:47;;;;;;;2.20;1.80;;;;;;;29.92;58.61;99587.30;675650;1270;139465;-84
2023/07/30 15:10:50;;;;;;;4.10;1.90;;;;;;;30.04;57.16;99581.04;676693;1270;139620;-82
2023/07/30 15:25:54;;;;;;;1.60;1.50;;;;;;;30.01;56.83;99566.36;678171;1269;139084;-81
2023/07/30 15:41:03;;;;;;;5.00;1.90;;;;;;;29.60;56.13;99561.27;678878;1269;139606;-76
2023/07/30 15:56:13;;;;;;;8.60;7.50;;;;;;;29.50;57.17;99558.57;679290;1264;140214;-77
2023/07/30 16:11:25;;;;;;;3.00;2.40;;;;;;;29.63;56.14;99551.70;679299;1269;140229;-76
2023/07/30 16:26:45;;;;;;;3.00;2.50;;;;;;;29.36;56.43;99543.30;678894;1269;139413;-75
2023/07/30 16:41:49;;;;;;;3.10;2.40;;;;;;;29.03;56.25;99537.50;679337;1267;140899;-75
2023/07/30 16:56:52;;;;;;;4.30;2.70;;;;;;;28.60;56.17;99558.42;679388;1267;139675;-76
2023/07/30 17:11:55;;;;;;;4.50;2.10;;;;;;;27.79;57.82;99571.23;678617;1269;139392;-76
2023/07/30 17:26:59;;;;;;;4.40;2.60;;;;;;;27.11;59.95;99573.90;679159;1267;139247;-76
2023/07/30 17:42:05;;;;;;;5.70;4.30;;;;;;;26.93;60.82;99579.19;678683;1269;139509;-76
2023/07/30 17:57:12;;;;;;;10.20;5.80;;;;;;;26.23;63.16;99585.84;679456;1269;139712;-75
2023/07/30 18:12:21;;;;;;;5.60;3.20;;;;;;;25.36;66.03;99587.61;679522;1267;139062;-76
2023/07/30 18:27:25;;;;;;;7.40;3.50;;;;;;;24.82;66.69;99590.22;679262;1264;139186;-77
2023/07/30 18:42:29;;;;;;;3.40;2.70;;;;;;;24.38;69.35;99586.30;678421;1269;139283;-76
2023/07/30 18:57:34;;;;;;;4.10;3.30;;;;;;;23.61;72.06;99594.50;679800;1264;139287;-76
2023/07/30 19:12:46;;;;;;;4.30;3.20;;;;;;;23.78;73.61;99605.73;678150;1276;717563;-77
2023/07/30 19:27:53;;;;;;;3.50;3.20;;;;;;;24.02;74.02;99604.29;679001;1264;138956;-77
2023/07/30 19:43:04;;;;;;;6.50;5.00;;;;;;;23.33;76.36;99606.61;679848;1264;140061;-78
2023/07/30 19:58:40;;;;;;;68.70;25.00;;;;;;;22.97;78.99;99619.16;679462;1264;140056;-77
2023/07/30 20:13:47;;;;;;;77.10;56.80;;;;;;;22.87;81.51;99635.79;678570;1269;141456;-77
2023/07/30 20:28:55;;;;;;;11.90;7.70;;;;;;;22.79;83.76;99649.05;679060;1266;140817;-77
2023/07/30 20:44:01;;;;;;;11.60;5.90;;;;;;;22.74;83.66;99655.00;678713;1270;139660;-77
2023/07/30 20:59:07;;;;;;;10.70;7.60;;;;;;;22.54;84.61;99673.05;678205;1280;140791;-77
2023/07/30 21:14:11;;;;;;;9.90;6.50;;;;;;;22.38;85.79;99671.41;678157;1268;139302;-75
2023/07/30 21:29:15;;;;;;;9.20;5.30;;;;;;;22.04;87.26;99678.20;679307;1269;141093;-76
2023/07/30 21:44:19;;;;;;;10.10;6.20;;;;;;;21.97;89.17;99669.16;679407;1265;141386;-76
2023/07/30 21:59:24;;;;;;;6.80;5.10;;;;;;;22.16;88.99;99658.65;678854;1269;138916;-77
2023/07/30 22:14:28;;;;;;;9.30;6.00;;;;;;;21.59;93.18;99655.29;678980;1267;139976;-76
2023/07/30 22:29:32;;;;;;;8.50;5.30;;;;;;;21.36;93.82;99657.20;679455;1267;140295;-76
2023/07/30 22:44:35;;;;;;;9.20;6.50;;;;;;;20.84;95.86;99665.41;678874;1267;140519;-76
2023/07/30 22:59:39;;;;;;;11.30;7.70;;;;;;;20.52;96.18;99672.16;680234;1269;141541;-75
2023/07/30 23:14:42;;;;;;;9.40;6.20;;;;;;;20.53;95.90;99675.64;679462;1267;139767;-75
2023/07/30 23:41:44;;;;;;;9.40;5.90;;;;;;;19.91;100.00;99667.25;660641;1297;545475;-76
2023/07/30 23:56:47;;;;;;;13.30;6.80;;;;;;;19.68;99.99;99665.48;675776;1274;139096;-76
